createdAt,value
2022-08-01T00:02:10.005Z,61.45
2022-08-01T00:04:41.126Z,61.44
2022-08-01T00:07:10.024Z,61.41
2022-08-01T00:09:38.963Z,61.46
2022-08-01T00:12:08.480Z,61.37
2022-08-01T00:14:37.515Z,61.52
2022-08-01T00:17:07.593Z,61.34
2022-08-01T00:19:36.818Z,61.44
2022-08-01T00:22:06.044Z,61.51
2022-08-01T00:24:35.379Z,61.45
2022-08-01T00:27:04.668Z,61.55
2022-08-01T00:30:11.427Z,61.66
2022-08-01T00:32:22.395Z,61.71
2022-08-01T00:34:51.332Z,61.70
2022-08-01T00:37:20.254Z,61.84
2022-08-01T00:39:49.061Z,61.80
2022-08-01T00:42:17.889Z,61.89
2022-08-01T00:44:48.156Z,61.78
2022-08-01T00:47:17.260Z,61.90
2022-08-01T00:49:46.151Z,62.15
2022-08-01T00:52:15.007Z,62.05
2022-08-01T00:54:44.534Z,62.06
2022-08-01T00:57:15.049Z,62.17
2022-08-01T00:59:44.164Z,62.11
2022-08-01T01:02:15.030Z,62.18
2022-08-01T01:04:44.806Z,62.25
2022-08-01T01:07:20.238Z,62.24
2022-08-01T01:09:58.147Z,62.27
2022-08-01T01:12:37.421Z,62.46
2022-08-01T01:15:14.565Z,62.45
2022-08-01T01:17:50.901Z,62.54
2022-08-01T01:20:28.031Z,62.62
2022-08-01T01:23:11.437Z,62.71
2022-08-01T01:26:05.968Z,62.67
2022-08-01T01:28:42.884Z,62.84
2022-08-01T01:31:14.391Z,62.81
2022-08-01T01:33:47.241Z,62.97
2022-08-01T01:36:19.246Z,62.98
2022-08-01T01:38:49.104Z,63.09
2022-08-01T01:41:19.245Z,63.14
2022-08-01T01:43:49.370Z,63.27
2022-08-01T01:46:23.108Z,63.36
2022-08-01T01:48:52.864Z,63.58
2022-08-01T01:51:23.763Z,63.55
2022-08-01T01:53:54.807Z,63.69
2022-08-01T01:56:24.945Z,63.75
2022-08-01T01:58:57.272Z,63.95
2022-08-01T02:02:06.033Z,64.04
2022-08-01T02:04:20.946Z,64.13
2022-08-01T02:06:52.168Z,64.17
2022-08-01T02:09:24.157Z,64.25
2022-08-01T02:12:07.385Z,64.26
2022-08-01T02:14:38.243Z,64.35
2022-08-01T02:17:07.244Z,64.37
2022-08-01T02:19:38.033Z,64.50
2022-08-01T02:22:11.342Z,64.51
2022-08-01T02:24:44.438Z,64.50
2022-08-01T02:27:16.815Z,64.49
2022-08-01T02:29:50.904Z,64.73
2022-08-01T02:32:25.550Z,64.90
2022-08-01T02:34:57.933Z,64.79
2022-08-01T02:37:30.201Z,64.92
2022-08-01T02:40:00.491Z,65.02
2022-08-01T02:42:30.708Z,64.89
2022-08-01T02:45:00.955Z,65.04
2022-08-01T02:47:33.024Z,65.27
2022-08-01T02:50:03.148Z,65.16
2022-08-01T02:52:33.779Z,65.17
2022-08-01T02:55:03.693Z,65.09
2022-08-01T02:57:42.714Z,65.02
2022-08-01T03:00:24.749Z,65.00
2022-08-01T03:02:56.871Z,65.00
2022-08-01T03:05:28.243Z,64.90
2022-08-01T03:08:02.638Z,64.69
2022-08-01T03:10:33.870Z,64.74
2022-08-01T03:13:04.018Z,64.72
2022-08-01T03:15:36.760Z,64.75
2022-08-01T03:18:08.933Z,64.73
2022-08-01T03:20:38.283Z,64.74
2022-08-01T03:23:09.619Z,64.64
2022-08-01T03:25:41.554Z,64.78
2022-08-01T03:28:13.237Z,64.55
2022-08-01T03:30:43.542Z,64.60
2022-08-01T03:33:14.486Z,64.44
2022-08-01T03:35:49.517Z,64.41
2022-08-01T03:38:22.612Z,64.35
2022-08-01T03:40:57.124Z,64.44
2022-08-01T03:43:32.547Z,64.45
2022-08-01T03:46:08.116Z,64.29
2022-08-01T03:48:41.749Z,64.36
2022-08-01T03:51:11.543Z,63.96
2022-08-01T03:53:42.500Z,63.89
2022-08-01T03:56:13.020Z,63.89
2022-08-01T03:58:44.184Z,63.88
2022-08-01T04:01:19.839Z,63.85
2022-08-01T04:03:49.847Z,63.66
2022-08-01T04:06:18.783Z,63.59
2022-08-01T04:08:55.787Z,63.48
2022-08-01T04:11:26.102Z,63.22
2022-08-01T04:13:55.730Z,63.10
2022-08-01T04:16:24.699Z,63.08
2022-08-01T04:18:53.818Z,62.92
2022-08-01T04:21:28.032Z,63.03
2022-08-01T04:24:00.117Z,62.60
2022-08-01T04:26:30.737Z,62.54
2022-08-01T04:29:01.606Z,62.47
2022-08-01T04:31:31.586Z,62.28
2022-08-01T04:34:05.392Z,61.88
2022-08-01T04:36:36.652Z,61.94
2022-08-01T04:39:08.488Z,61.82
2022-08-01T04:41:39.546Z,61.82
2022-08-01T04:44:08.921Z,61.49
2022-08-01T04:46:39.487Z,61.52
2022-08-01T04:49:09.914Z,61.37
2022-08-01T04:51:51.380Z,61.27
2022-08-01T04:54:21.895Z,60.95
2022-08-01T04:56:51.482Z,60.97
2022-08-01T04:59:39.059Z,60.69
2022-08-01T05:02:09.211Z,60.80
2022-08-01T05:04:39.063Z,60.64
2022-08-01T05:07:08.774Z,60.60
2022-08-01T05:09:38.140Z,60.41
2022-08-01T05:12:09.686Z,60.47
2022-08-01T05:14:38.706Z,60.32
2022-08-01T05:17:09.146Z,60.19
2022-08-01T05:19:39.504Z,60.09
2022-08-01T05:22:09.688Z,60.19
2022-08-01T05:24:40.296Z,59.98
2022-08-01T05:27:10.503Z,59.89
2022-08-01T05:29:44.714Z,59.87
2022-08-01T05:32:14.011Z,59.71
2022-08-01T05:34:44.209Z,59.65
2022-08-01T05:37:13.045Z,59.54
2022-08-01T05:39:41.849Z,59.52
2022-08-01T05:42:10.797Z,59.35
2022-08-01T05:44:39.677Z,59.54
2022-08-01T05:47:08.640Z,59.65
2022-08-01T05:49:37.794Z,59.48
2022-08-01T05:52:08.034Z,59.24
2022-08-01T05:54:37.312Z,59.36
2022-08-01T05:57:06.293Z,59.51
2022-08-01T05:59:35.264Z,59.14
2022-08-01T06:02:04.531Z,59.22
2022-08-01T06:04:34.018Z,59.21
2022-08-01T06:07:02.885Z,59.34
2022-08-01T06:09:31.715Z,59.15
2022-08-01T06:12:00.572Z,58.93
2022-08-01T06:14:29.555Z,59.07
2022-08-01T06:16:58.823Z,59.13
2022-08-01T06:19:27.800Z,59.31
2022-08-01T06:21:56.650Z,59.13
2022-08-01T06:24:25.430Z,58.97
2022-08-01T06:26:54.272Z,59.00
2022-08-01T06:29:23.158Z,59.21
2022-08-01T06:31:51.948Z,59.16
2022-08-01T06:34:21.972Z,58.93
2022-08-01T06:36:50.820Z,59.15
2022-08-01T06:39:19.684Z,59.38
2022-08-01T06:41:48.442Z,59.34
2022-08-01T06:44:17.549Z,59.23
2022-08-01T06:46:46.331Z,59.30
2022-08-01T06:49:15.156Z,59.31
2022-08-01T06:51:44.049Z,59.16
2022-08-01T06:54:12.830Z,59.03
2022-08-01T06:56:41.643Z,58.83
2022-08-01T06:59:10.794Z,58.43
2022-08-01T07:01:39.712Z,57.98
2022-08-01T07:04:08.569Z,58.07
2022-08-01T07:06:37.434Z,57.95
2022-08-01T07:09:09.651Z,57.62
2022-08-01T07:11:41.249Z,56.82
2022-08-01T07:14:10.151Z,56.30
2022-08-01T07:16:39.135Z,56.10
2022-08-01T07:19:08.442Z,55.87
2022-08-01T07:21:40.690Z,55.75
2022-08-01T07:24:14.445Z,55.24
2022-08-01T07:26:54.106Z,54.78
2022-08-01T07:29:25.608Z,54.39
2022-08-01T07:31:55.763Z,53.88
2022-08-01T07:34:26.068Z,53.46
2022-08-01T07:36:55.116Z,53.04
2022-08-01T07:39:24.170Z,52.26
2022-08-01T07:42:07.796Z,52.03
2022-08-01T07:44:37.507Z,51.70
2022-08-01T07:47:07.228Z,51.33
2022-08-01T07:49:40.258Z,50.72
2022-08-01T07:52:10.240Z,50.31
2022-08-01T07:54:39.287Z,50.09
2022-08-01T07:57:08.220Z,49.88
2022-08-01T07:59:37.427Z,49.20
2022-08-01T08:02:07.042Z,48.80
2022-08-01T08:04:36.271Z,48.44
2022-08-01T08:07:05.611Z,47.51
2022-08-01T08:09:37.415Z,47.56
2022-08-01T08:12:08.858Z,47.05
2022-08-01T08:14:38.131Z,46.39
2022-08-01T08:17:07.777Z,46.15
2022-08-01T08:19:39.264Z,45.94
2022-08-01T08:22:09.589Z,45.38
2022-08-01T08:24:45.579Z,45.21
2022-08-01T08:27:16.253Z,44.81
2022-08-01T08:29:45.262Z,43.67
2022-08-01T08:32:14.410Z,43.12
2022-08-01T08:34:43.821Z,43.39
2022-08-01T08:37:13.280Z,43.51
2022-08-01T08:39:42.457Z,43.04
2022-08-01T08:42:12.379Z,42.62
2022-08-01T08:44:43.763Z,42.53
2022-08-01T08:47:19.876Z,42.19
2022-08-01T08:49:56.912Z,41.77
2022-08-01T08:52:26.860Z,41.48
2022-08-01T08:54:58.727Z,41.22
2022-08-01T08:57:28.086Z,40.92
2022-08-01T08:59:58.385Z,40.34
2022-08-01T09:02:27.337Z,40.28
2022-08-01T09:04:56.459Z,39.97
2022-08-01T09:07:26.591Z,39.76
2022-08-01T09:09:55.493Z,39.74
2022-08-01T09:12:24.276Z,39.61
2022-08-01T09:14:53.884Z,39.42
2022-08-01T09:17:23.045Z,39.27
2022-08-01T09:19:54.615Z,39.10
2022-08-01T09:22:25.804Z,39.06
2022-08-01T09:25:03.596Z,38.92
2022-08-01T09:27:33.441Z,39.00
2022-08-01T09:30:17.135Z,38.66
2022-08-01T09:33:00.951Z,38.78
2022-08-01T09:35:43.511Z,38.70
2022-08-01T09:38:17.430Z,38.65
2022-08-01T09:40:51.923Z,38.51
2022-08-01T09:43:22.132Z,38.62
2022-08-01T09:45:52.902Z,38.49
2022-08-01T09:48:27.900Z,38.45
2022-08-01T09:51:04.150Z,38.37
2022-08-01T09:53:52.062Z,38.12
2022-08-01T09:56:23.466Z,38.26
2022-08-01T09:58:59.549Z,38.31
2022-08-01T10:01:36.614Z,38.37
2022-08-01T10:04:09.946Z,38.62
2022-08-01T10:06:40.984Z,38.47
2022-08-01T10:09:11.170Z,38.46
2022-08-01T10:11:41.225Z,38.45
2022-08-01T10:14:10.149Z,38.17
2022-08-01T10:16:40.687Z,38.11
2022-08-01T10:19:15.420Z,37.88
2022-08-01T10:21:58.020Z,37.88
2022-08-01T10:24:30.161Z,37.51
2022-08-01T10:27:06.142Z,37.21
2022-08-01T10:29:46.413Z,36.99
2022-08-01T10:32:29.560Z,36.84
2022-08-01T10:34:59.494Z,36.07
2022-08-01T10:37:52.027Z,36.23
2022-08-01T10:40:30.848Z,36.19
2022-08-01T10:43:01.124Z,35.76
2022-08-01T10:45:30.982Z,35.67
2022-08-01T10:48:07.034Z,35.62
2022-08-01T10:50:42.592Z,35.30
2022-08-01T10:53:23.121Z,35.26
2022-08-01T10:56:03.232Z,35.01
2022-08-01T10:58:39.795Z,35.22
2022-08-01T11:01:27.234Z,35.05
2022-08-01T11:04:16.958Z,35.15
2022-08-01T11:06:54.777Z,34.97
2022-08-01T11:09:30.389Z,35.24
2022-08-01T11:12:13.478Z,35.07
2022-08-01T11:15:29.244Z,34.97
2022-08-01T11:18:05.877Z,34.74
2022-08-01T11:20:42.089Z,34.83
2022-08-01T11:23:21.707Z,34.86
2022-08-01T11:26:17.592Z,35.38
2022-08-01T11:29:19.965Z,35.30
2022-08-01T11:31:52.880Z,34.82
2022-08-01T11:34:55.215Z,35.08
2022-08-01T11:37:30.619Z,35.18
2022-08-01T11:40:22.853Z,35.29
2022-08-01T11:43:19.803Z,35.45
2022-08-01T11:45:55.380Z,35.33
2022-08-01T11:48:27.811Z,35.22
2022-08-01T11:50:58.702Z,35.31
2022-08-01T11:53:33.617Z,34.98
2022-08-01T11:56:02.682Z,35.14
2022-08-01T11:58:31.605Z,35.53
2022-08-01T12:01:00.899Z,35.50
2022-08-01T12:03:33.494Z,35.29
2022-08-01T12:06:02.924Z,35.19
2022-08-01T12:08:34.729Z,35.34
2022-08-01T12:11:06.935Z,35.40
2022-08-01T12:13:43.435Z,35.23
2022-08-01T12:16:13.065Z,35.22
2022-08-01T12:18:43.592Z,35.38
2022-08-01T12:21:12.481Z,35.20
2022-08-01T12:23:41.407Z,35.67
2022-08-01T12:26:28.425Z,35.50
2022-08-01T12:28:59.157Z,35.68
2022-08-01T12:31:35.200Z,35.66
2022-08-01T12:34:28.760Z,35.48
2022-08-01T12:36:59.936Z,35.48
2022-08-01T12:39:35.953Z,35.65
2022-08-01T12:42:11.075Z,35.75
2022-08-01T12:44:40.626Z,35.39
2022-08-01T12:47:10.080Z,35.42
2022-08-01T12:49:41.105Z,35.47
2022-08-01T12:52:13.359Z,35.26
2022-08-01T12:55:03.482Z,35.10
2022-08-01T12:57:37.700Z,35.40
2022-08-01T13:00:16.124Z,35.46
2022-08-01T13:02:46.629Z,35.50
2022-08-01T13:05:16.506Z,35.22
2022-08-01T13:07:48.661Z,35.11
2022-08-01T13:10:26.763Z,35.15
2022-08-01T13:12:57.684Z,35.32
2022-08-01T13:15:31.498Z,35.37
2022-08-01T13:18:02.410Z,34.89
2022-08-01T13:20:34.337Z,34.70
2022-08-01T13:23:15.315Z,34.82
2022-08-01T13:25:52.856Z,34.42
2022-08-01T13:28:24.207Z,34.29
2022-08-01T13:30:59.095Z,34.43
2022-08-01T13:33:40.647Z,34.22
2022-08-01T13:36:09.564Z,33.80
2022-08-01T13:38:57.059Z,34.06
2022-08-01T13:41:25.941Z,33.62
2022-08-01T13:43:57.639Z,33.60
2022-08-01T13:46:29.551Z,33.74
2022-08-01T13:48:58.661Z,33.44
2022-08-01T13:51:34.541Z,33.46
2022-08-01T13:54:05.213Z,33.26
2022-08-01T13:56:34.325Z,33.24
2022-08-01T13:59:03.406Z,33.05
2022-08-01T14:01:34.448Z,32.88
2022-08-01T14:04:04.659Z,32.74
2022-08-01T14:06:35.504Z,32.61
2022-08-01T14:09:17.763Z,32.52
2022-08-01T14:11:47.628Z,32.54
2022-08-01T14:14:16.592Z,32.40
2022-08-01T14:16:46.049Z,32.41
2022-08-01T14:19:17.054Z,32.19
2022-08-01T14:21:45.899Z,32.28
2022-08-01T14:24:14.752Z,32.56
2022-08-01T14:26:43.553Z,32.28
2022-08-01T14:29:12.439Z,32.44
2022-08-01T14:31:41.338Z,32.51
2022-08-01T14:34:10.196Z,32.49
2022-08-01T14:36:39.111Z,32.49
2022-08-01T14:39:08.153Z,32.48
2022-08-01T14:41:43.798Z,32.42
2022-08-01T14:44:15.446Z,32.56
2022-08-01T14:46:57.731Z,32.58
2022-08-01T14:49:27.986Z,32.63
2022-08-01T14:51:56.993Z,32.66
2022-08-01T14:54:29.053Z,32.99
2022-08-01T14:56:58.894Z,33.14
2022-08-01T14:59:27.732Z,33.57
2022-08-01T15:01:56.448Z,33.72
2022-08-01T15:04:25.627Z,33.75
2022-08-01T15:06:54.438Z,33.94
2022-08-01T15:09:24.056Z,33.95
2022-08-01T15:11:53.157Z,34.07
2022-08-01T15:14:40.213Z,34.09
2022-08-01T15:17:09.056Z,34.29
2022-08-01T15:19:42.007Z,34.42
2022-08-01T15:22:11.559Z,34.61
2022-08-01T15:24:40.564Z,34.58
2022-08-01T15:27:09.860Z,34.65
2022-08-01T15:29:39.169Z,34.71
2022-08-01T15:32:09.481Z,34.68
2022-08-01T15:34:39.390Z,34.66
2022-08-01T15:37:10.330Z,34.58
2022-08-01T15:39:39.943Z,34.50
2022-08-01T15:42:11.009Z,34.67
2022-08-01T15:44:40.176Z,34.65
2022-08-01T15:47:10.304Z,34.66
2022-08-01T15:49:39.369Z,34.63
2022-08-01T15:52:22.262Z,34.41
2022-08-01T15:54:51.899Z,34.59
2022-08-01T15:57:21.124Z,34.47
2022-08-01T15:59:49.974Z,34.51
2022-08-01T16:02:18.879Z,34.50
2022-08-01T16:04:47.802Z,34.42
2022-08-01T16:07:16.631Z,34.35
2022-08-01T16:09:45.674Z,34.62
2022-08-01T16:12:14.450Z,34.36
2022-08-01T16:14:43.183Z,34.41
2022-08-01T16:17:12.189Z,34.63
2022-08-01T16:19:41.535Z,34.36
2022-08-01T16:22:10.548Z,34.27
2022-08-01T16:24:39.462Z,34.36
2022-08-01T16:27:08.637Z,34.46
2022-08-01T16:29:37.749Z,34.53
2022-08-01T16:32:34.285Z,34.35
2022-08-01T16:34:56.086Z,34.37
2022-08-01T16:37:24.975Z,34.69
2022-08-01T16:39:53.881Z,34.73
2022-08-01T16:42:27.674Z,34.70
2022-08-01T16:44:58.924Z,34.48
2022-08-01T16:47:27.723Z,34.66
2022-08-01T16:49:56.541Z,34.76
2022-08-01T16:52:28.759Z,34.68
2022-08-01T16:54:57.935Z,34.61
2022-08-01T16:57:26.790Z,34.61
2022-08-01T16:59:55.631Z,34.71
2022-08-01T17:02:25.278Z,34.81
2022-08-01T17:04:54.114Z,34.76
2022-08-01T17:07:22.987Z,34.61
2022-08-01T17:09:51.866Z,34.56
2022-08-01T17:12:22.481Z,34.68
2022-08-01T17:14:52.033Z,34.75
2022-08-01T17:17:20.925Z,34.94
2022-08-01T17:19:50.553Z,34.98
2022-08-01T17:22:19.950Z,35.21
2022-08-01T17:24:50.456Z,35.33
2022-08-01T17:27:19.454Z,35.36
2022-08-01T17:29:48.340Z,35.35
2022-08-01T17:32:17.208Z,35.71
2022-08-01T17:34:46.021Z,35.67
2022-08-01T17:37:14.974Z,35.84
2022-08-01T17:39:43.907Z,35.89
2022-08-01T17:42:12.735Z,35.99
2022-08-01T17:44:41.834Z,36.05
2022-08-01T17:47:40.939Z,36.17
2022-08-01T17:50:09.858Z,36.37
2022-08-01T17:52:38.863Z,36.45
2022-08-01T17:55:55.626Z,36.56
2022-08-01T17:57:57.866Z,36.73
2022-08-01T18:00:30.859Z,36.80
2022-08-01T18:02:59.652Z,36.86
2022-08-01T18:05:37.164Z,36.93
2022-08-01T18:08:07.772Z,37.05
2022-08-01T18:10:36.576Z,37.03
2022-08-01T18:13:09.087Z,37.33
2022-08-01T18:15:38.138Z,37.45
2022-08-01T18:18:08.035Z,37.39
2022-08-01T18:20:36.895Z,37.48
2022-08-01T18:23:09.431Z,37.51
2022-08-01T18:25:38.612Z,37.37
2022-08-01T18:28:23.388Z,37.56
2022-08-01T18:30:57.047Z,37.63
2022-08-01T18:33:25.789Z,37.87
2022-08-01T18:35:55.679Z,37.95
2022-08-01T18:38:31.652Z,37.95
2022-08-01T18:41:00.564Z,37.98
2022-08-01T18:43:29.710Z,37.95
2022-08-01T18:46:00.597Z,38.17
2022-08-01T18:48:29.708Z,38.32
2022-08-01T18:51:00.293Z,38.35
2022-08-01T18:53:29.471Z,38.55
2022-08-01T18:55:58.260Z,38.84
2022-08-01T18:58:27.533Z,38.93
2022-08-01T19:00:56.377Z,39.06
2022-08-01T19:03:25.208Z,39.55
2022-08-01T19:05:53.999Z,39.61
2022-08-01T19:08:22.913Z,39.63
2022-08-01T19:10:52.048Z,39.91
2022-08-01T19:13:20.897Z,40.15
2022-08-01T19:15:49.739Z,40.56
2022-08-01T19:18:19.108Z,40.55
2022-08-01T19:20:48.025Z,40.79
2022-08-01T19:23:35.226Z,40.68
2022-08-01T19:26:09.142Z,41.13
2022-08-01T19:28:45.971Z,41.25
2022-08-01T19:31:15.099Z,41.22
2022-08-01T19:33:44.519Z,41.53
2022-08-01T19:36:16.695Z,41.72
2022-08-01T19:38:46.286Z,42.03
2022-08-01T19:41:17.458Z,41.86
2022-08-01T19:43:47.446Z,42.01
2022-08-01T19:46:18.261Z,42.28
2022-08-01T19:48:53.612Z,42.41
2022-08-01T19:51:33.609Z,42.54
2022-08-01T19:54:06.286Z,42.53
2022-08-01T19:56:39.973Z,42.78
2022-08-01T19:59:09.574Z,42.74
2022-08-01T20:01:38.411Z,42.69
2022-08-01T20:04:08.593Z,42.97
2022-08-01T20:06:38.058Z,43.00
2022-08-01T20:09:07.581Z,43.32
2022-08-01T20:11:36.541Z,43.22
2022-08-01T20:14:05.515Z,43.43
2022-08-01T20:16:34.868Z,43.39
2022-08-01T20:19:04.508Z,43.41
2022-08-01T20:21:35.332Z,43.95
2022-08-01T20:24:09.852Z,43.79
2022-08-01T20:26:39.782Z,43.88
2022-08-01T20:29:09.154Z,43.78
2022-08-01T20:31:43.825Z,43.85
2022-08-01T20:34:16.764Z,44.03
2022-08-01T20:36:54.535Z,44.14
2022-08-01T20:39:26.759Z,44.40
2022-08-01T20:41:59.559Z,44.39
2022-08-01T20:44:31.060Z,44.79
2022-08-01T20:47:01.022Z,44.82
2022-08-01T20:49:31.692Z,44.74
2022-08-01T20:52:00.728Z,44.82
2022-08-01T20:54:42.316Z,44.90
2022-08-01T20:57:20.257Z,45.11
2022-08-01T20:59:56.548Z,45.18
2022-08-01T21:02:37.379Z,45.44
2022-08-01T21:05:10.157Z,45.70
2022-08-01T21:07:48.344Z,45.68
2022-08-01T21:10:18.830Z,45.70
2022-08-01T21:12:50.436Z,45.76
2022-08-01T21:15:29.806Z,45.82
2022-08-01T21:18:03.660Z,45.86
2022-08-01T21:20:35.641Z,45.72
2022-08-01T21:23:16.814Z,45.90
2022-08-01T21:25:47.347Z,46.14
2022-08-01T21:28:16.151Z,46.44
2022-08-01T21:30:55.471Z,46.16
2022-08-01T21:33:26.130Z,46.37
2022-08-01T21:36:00.187Z,46.59
2022-08-01T21:38:35.754Z,46.54
2022-08-01T21:41:06.935Z,46.81
2022-08-01T21:43:38.459Z,46.51
2022-08-01T21:46:09.089Z,46.74
2022-08-01T21:48:38.811Z,46.74
2022-08-01T21:51:21.915Z,46.84
2022-08-01T21:54:07.077Z,46.92
2022-08-01T21:56:49.312Z,46.92
2022-08-01T21:59:24.155Z,47.18
2022-08-01T22:02:01.242Z,47.07
2022-08-01T22:04:38.203Z,47.30
2022-08-01T22:07:10.685Z,47.26
2022-08-01T22:09:44.087Z,47.17
2022-08-01T22:12:17.866Z,47.38
2022-08-01T22:14:53.406Z,47.40
2022-08-01T22:17:24.251Z,47.37
2022-08-01T22:19:55.680Z,47.50
2022-08-01T22:22:50.744Z,47.44
2022-08-01T22:25:14.437Z,47.55
2022-08-01T22:28:08.653Z,47.79
2022-08-01T22:30:34.766Z,47.83
2022-08-01T22:33:07.957Z,47.88
2022-08-01T22:35:47.322Z,48.14
2022-08-01T22:38:18.256Z,48.14
2022-08-01T22:40:50.431Z,47.83
2022-08-01T22:43:26.421Z,48.18
2022-08-01T22:46:09.207Z,48.04
2022-08-01T22:48:44.925Z,48.13
2022-08-01T22:51:23.443Z,47.96
2022-08-01T22:54:01.367Z,47.93
2022-08-01T22:56:31.981Z,47.98
2022-08-01T22:59:06.215Z,47.88
2022-08-01T23:01:37.984Z,48.20
2022-08-01T23:04:11.980Z,48.02
2022-08-01T23:06:43.192Z,47.90
2022-08-01T23:09:13.098Z,47.83
2022-08-01T23:11:42.022Z,48.08
2022-08-01T23:14:11.608Z,47.95
2022-08-01T23:16:41.972Z,47.96
2022-08-01T23:19:11.744Z,47.99
2022-08-01T23:21:42.500Z,48.00
2022-08-01T23:24:13.936Z,48.04
2022-08-01T23:26:43.869Z,47.94
2022-08-01T23:29:13.096Z,47.98
2022-08-01T23:31:58.240Z,47.92
2022-08-01T23:34:30.741Z,48.14
2022-08-01T23:36:59.633Z,47.97
2022-08-01T23:39:28.561Z,47.98
2022-08-01T23:41:59.535Z,48.12
2022-08-01T23:44:30.168Z,48.05
2022-08-01T23:46:59.005Z,48.00
2022-08-01T23:49:28.325Z,48.11
2022-08-01T23:51:57.283Z,48.27
2022-08-01T23:54:26.147Z,48.20
2022-08-01T23:56:55.333Z,48.32
2022-08-01T23:59:24.116Z,48.54
